Time;durP1;ratioP1;P1;durP2;ratioP2;P2;SDS_P1;SDS_P2;PMS_P1;PMS_P2;Temp;Humidity;BMP_temperature;BMP_pressure;BME280_temperature;BME280_humidity;BME280_pressure;Samples;Min_cycle;Max_cycle;Signal;HPM_P1;HPM_P2
2021/07/11 00:01:10;;;;;;;3.87;3.58;;;;;;;17.07;73.05;96633.08;1792094;78;20946;-79
2021/07/11 00:03:35;;;;;;;4.83;4.20;;;;;;;17.07;73.09;96633.08;1800884;78;20922;-79
2021/07/11 00:06:01;;;;;;;5.00;4.17;;;;;;;17.05;73.19;96632.50;1802668;78;21531;-79
2021/07/11 00:08:27;;;;;;;3.85;3.55;;;;;;;17.03;73.28;96632.72;1773330;78;20907;-80
2021/07/11 00:10:52;;;;;;;3.95;3.55;;;;;;;17.03;73.22;96631.41;1799820;78;20962;-79
2021/07/11 00:13:19;;;;;;;4.25;3.83;;;;;;;17.03;73.24;96635.34;1796926;78;21026;-79
2021/07/11 00:15:45;;;;;;;4.42;4.00;;;;;;;17.03;73.29;96630.09;1804245;78;21018;-80
2021/07/11 00:18:11;;;;;;;4.70;4.30;;;;;;;17.02;73.32;96631.63;1800644;78;21259;-80
2021/07/11 00:20:37;;;;;;;4.22;3.83;;;;;;;16.97;73.48;96629.66;1802129;78;20967;-80
2021/07/11 00:23:03;;;;;;;4.53;4.12;;;;;;;16.97;73.56;96632.79;1804569;78;20907;-80
2021/07/11 00:25:29;;;;;;;4.08;3.72;;;;;;;16.92;73.59;96627.36;1799644;78;21029;-80
2021/07/11 00:27:55;;;;;;;5.40;4.15;;;;;;;16.91;73.75;96627.07;1804006;78;20979;-80
2021/07/11 00:30:23;;;;;;;5.58;4.53;;;;;;;16.90;73.86;96626.78;1802422;78;20950;-80
2021/07/11 00:32:49;;;;;;;4.70;4.17;;;;;;;16.89;73.77;96627.80;1801409;78;21244;-80
2021/07/11 00:35:15;;;;;;;4.75;3.95;;;;;;;16.86;73.81;96625.61;1804906;78;20978;-79
2021/07/11 00:37:41;;;;;;;4.55;4.00;;;;;;;16.83;74.08;96620.80;1801075;78;21336;-80
2021/07/11 00:40:09;;;;;;;5.28;3.80;;;;;;;16.79;74.21;96626.98;1793461;78;20939;-80
2021/07/11 00:42:34;;;;;;;3.65;3.35;;;;;;;16.78;74.17;96621.45;1780352;79;20984;-80
2021/07/11 00:45:00;;;;;;;4.75;3.83;;;;;;;16.75;74.19;96621.34;1803572;77;20950;-80
2021/07/11 00:47:26;;;;;;;3.85;3.55;;;;;;;16.74;74.35;96618.94;1773456;79;20891;-80
2021/07/11 00:49:51;;;;;;;4.50;4.10;;;;;;;16.70;74.38;96615.95;1801321;78;21367;-79
2021/07/11 00:52:17;;;;;;;4.95;3.92;;;;;;;16.66;74.43;96612.62;1800470;78;20941;-79
2021/07/11 00:54:43;;;;;;;4.87;4.35;;;;;;;16.61;74.49;96608.03;1795025;78;20916;-79
2021/07/11 00:57:09;;;;;;;4.25;3.80;;;;;;;16.60;74.53;96610.36;1795660;78;21196;-79
2021/07/11 00:59:36;;;;;;;4.53;4.12;;;;;;;16.58;74.44;96608.94;1799185;78;20939;-79
2021/07/11 01:02:22;;;;;;;4.22;3.83;;;;;;;16.59;74.67;96603.98;1800509;78;21371;-79
2021/07/11 01:05:00;;;;;;;5.15;4.28;;;;;;;16.57;74.87;96602.09;1800876;78;20998;-79
2021/07/11 01:07:29;;;;;;;4.70;4.30;;;;;;;16.55;74.94;96601.50;1795270;78;21023;-79
2021/07/11 01:09:57;;;;;;;5.37;3.50;;;;;;;16.52;74.99;96605.36;1795880;78;20994;-79
2021/07/11 01:12:27;;;;;;;4.45;3.58;;;;;;;16.51;74.89;96605.88;1777544;79;20938;-79
2021/07/11 01:14:53;;;;;;;4.15;3.85;;;;;;;16.51;74.92;96603.76;1803610;77;20967;-79
2021/07/11 01:17:24;;;;;;;4.83;4.40;;;;;;;16.49;74.85;96603.17;1825663;77;21019;-79
2021/07/11 01:20:24;;;;;;;4.80;4.40;;;;;;;16.45;74.96;96600.69;1781957;79;21051;-80
2021/07/11 01:22:52;;;;;;;4.53;4.12;;;;;;;16.41;74.99;96596.86;1787654;79;20955;-79
2021/07/11 01:25:34;;;;;;;5.20;4.70;;;;;;;16.34;75.07;96597.42;1780526;79;20966;-80
2021/07/11 01:28:06;;;;;;;4.00;3.70;;;;;;;16.30;75.04;96597.56;1780601;78;20921;-80
2021/07/11 01:30:32;;;;;;;4.55;4.15;;;;;;;16.28;75.21;96601.72;1783062;78;20950;-81
2021/07/11 01:32:57;;;;;;;4.30;3.92;;;;;;;16.26;75.22;96608.16;1787189;78;21229;-81
2021/07/11 01:35:24;;;;;;;4.37;4.00;;;;;;;16.23;75.44;96606.77;1782235;78;21013;-81
2021/07/11 01:37:51;;;;;;;4.65;4.25;;;;;;;16.19;75.39;96610.33;1783728;79;20978;-81
2021/07/11 01:40:18;;;;;;;4.40;4.00;;;;;;;16.15;75.43;96608.34;1783802;79;20939;-81
2021/07/11 01:42:43;;;;;;;4.50;4.10;;;;;;;16.10;75.49;96608.95;1813169;77;20947;-81
2021/07/11 01:45:11;;;;;;;3.70;3.40;;;;;;;16.08;75.63;96613.61;1832867;77;20994;-80
2021/07/11 01:47:37;;;;;;;4.22;3.90;;;;;;;16.09;75.97;96609.97;1833172;77;20922;-80
2021/07/11 01:50:05;;;;;;;5.20;4.15;;;;;;;16.08;75.69;96610.19;1813696;77;20950;-81
2021/07/11 01:52:31;;;;;;;4.55;4.15;;;;;;;16.09;75.75;96603.92;1834057;77;20971;-81
2021/07/11 01:54:56;;;;;;;5.95;4.67;;;;;;;16.07;75.83;96610.69;1832442;77;20959;-80
2021/07/11 01:57:22;;;;;;;5.22;4.72;;;;;;;16.05;75.75;96615.34;1775327;79;21013;-80
2021/07/11 01:59:48;;;;;;;4.72;4.33;;;;;;;16.02;75.87;96618.39;1782662;78;20975;-81
2021/07/11 02:02:13;;;;;;;3.87;3.58;;;;;;;16.01;75.92;96613.36;1786204;78;20917;-80
2021/07/11 02:04:39;;;;;;;4.20;3.80;;;;;;;;;;1784401;78;20955;-80
2021/07/11 02:07:05;;;;;;;5.08;4.62;;;;;;;15.97;75.85;96618.22;1785431;78;21043;-80
2021/07/11 02:09:32;;;;;;;5.50;5.10;;;;;;;15.94;75.98;96610.76;1814372;78;21192;-80
2021/07/11 02:11:58;;;;;;;5.42;5.03;;;;;;;15.91;75.96;96609.36;1761251;78;21075;-80
2021/07/11 02:14:28;;;;;;;4.33;4.03;;;;;;;15.86;76.29;96609.70;1818395;77;21008;-81
2021/07/11 02:17:08;;;;;;;4.75;4.33;;;;;;;15.84;76.45;96603.88;1816748;77;21027;-81
2021/07/11 02:19:34;;;;;;;4.90;4.50;;;;;;;15.85;76.72;96603.66;1809203;78;21236;-81
2021/07/11 02:22:00;;;;;;;4.75;4.25;;;;;;;15.88;76.69;96603.74;1793595;79;20959;-80
2021/07/11 02:24:25;;;;;;;4.87;4.47;;;;;;;15.88;76.50;96607.67;1794274;79;21343;-80
2021/07/11 02:26:51;;;;;;;4.92;4.42;;;;;;;15.86;76.74;96606.58;1787033;78;20983;-81
2021/07/11 02:29:17;;;;;;;5.33;4.92;;;;;;;15.83;76.69;96612.23;1787244;79;21022;-79
2021/07/11 02:31:43;;;;;;;5.35;4.87;;;;;;;15.79;77.00;96613.67;1822985;77;21017;-78
2021/07/11 02:34:10;;;;;;;4.60;4.20;;;;;;;15.75;77.15;96611.16;1800909;77;21292;-78
2021/07/11 02:36:36;;;;;;;5.15;4.75;;;;;;;15.75;77.10;96613.77;1831515;77;21023;-78
2021/07/11 02:39:08;;;;;;;4.85;4.45;;;;;;;15.77;77.33;96607.02;1822501;77;21003;-79
2021/07/11 02:41:36;;;;;;;4.87;4.47;;;;;;;15.77;77.18;96607.81;1821389;77;21246;-78
2021/07/11 02:44:05;;;;;;;5.55;5.05;;;;;;;15.79;77.17;96608.44;1816245;78;20983;-79
2021/07/11 02:46:42;;;;;;;5.42;5.03;;;;;;;15.78;77.11;96607.30;1812060;77;21408;-78
2021/07/11 02:49:12;;;;;;;6.22;5.20;;;;;;;15.75;77.10;96603.80;1819328;77;20932;-79
2021/07/11 02:51:41;;;;;;;5.10;4.60;;;;;;;15.71;77.23;96607.34;1792216;78;20952;-78
2021/07/11 02:54:07;;;;;;;4.95;4.55;;;;;;;15.71;77.18;96607.85;1820789;77;21269;-78
2021/07/11 02:56:35;;;;;;;5.40;4.60;;;;;;;15.71;77.18;96606.04;1816658;77;20877;-79
2021/07/11 02:59:01;;;;;;;5.62;5.12;;;;;;;15.71;77.32;96607.34;1816006;77;21218;-79
2021/07/11 03:01:27;;;;;;;5.78;5.28;;;;;;;15.71;77.79;96608.66;1805695;78;20982;-79
2021/07/11 03:03:53;;;;;;;5.90;5.30;;;;;;;15.69;77.60;96612.50;1767872;80;20945;-79
2021/07/11 03:06:19;;;;;;;5.35;4.85;;;;;;;15.67;77.84;96611.91;1760205;79;21054;-79
2021/07/11 03:08:45;;;;;;;5.45;4.83;;;;;;;15.66;77.71;96606.38;1801527;78;20908;-79
2021/07/11 03:11:11;;;;;;;5.55;5.05;;;;;;;15.68;77.64;96613.01;1794489;78;21845;-78
2021/07/11 03:13:37;;;;;;;5.42;4.95;;;;;;;15.69;77.71;96609.88;1798985;78;20899;-78
2021/07/11 03:16:04;;;;;;;5.15;4.75;;;;;;;15.70;77.74;96608.87;1776315;79;20915;-79
2021/07/11 03:18:30;;;;;;;5.42;5.03;;;;;;;15.70;77.84;96608.87;1824217;77;21186;-79
2021/07/11 03:20:56;;;;;;;5.33;4.83;;;;;;;15.69;77.81;96608.57;1765081;80;20918;-79
2021/07/11 03:23:22;;;;;;;5.15;4.72;;;;;;;15.70;77.77;96607.05;1781569;79;21018;-79
2021/07/11 03:25:49;;;;;;;6.20;5.60;;;;;;;15.73;77.86;96609.25;1775459;79;21643;-79
2021/07/11 03:28:17;;;;;;;5.70;5.20;;;;;;;15.78;77.85;96599.45;1800448;78;20948;-79
2021/07/11 03:30:43;;;;;;;5.85;5.35;;;;;;;15.78;77.75;96609.45;1796714;78;21255;-79
2021/07/11 03:33:09;;;;;;;5.60;5.20;;;;;;;15.78;78.00;96611.23;1805845;78;20946;-78
2021/07/11 03:35:48;;;;;;;5.47;4.97;;;;;;;15.76;78.14;96604.09;1793434;78;20951;-79
2021/07/11 03:38:18;;;;;;;4.95;4.55;;;;;;;15.72;78.28;96601.60;1772672;79;21340;-79
2021/07/11 03:40:45;;;;;;;5.47;4.97;;;;;;;15.73;78.52;96611.06;1778303;79;20931;-78
2021/07/11 03:43:11;;;;;;;5.83;5.33;;;;;;;15.77;78.89;96613.05;1798172;78;21010;-79
2021/07/11 03:45:38;;;;;;;6.05;5.58;;;;;;;15.77;78.82;96613.05;1778281;79;21428;-78
2021/07/11 03:48:19;;;;;;;6.83;6.22;;;;;;;15.82;78.83;96616.37;1818376;77;20946;-79
2021/07/11 03:50:47;;;;;;;6.70;6.20;;;;;;;15.82;78.64;96612.45;1832580;77;20956;-79
2021/07/11 03:53:14;;;;;;;6.78;6.08;;;;;;;15.83;78.74;96614.86;1827964;77;20964;-78
2021/07/11 03:55:40;;;;;;;5.60;5.08;;;;;;;15.85;78.73;96614.65;1820692;77;21246;-79
2021/07/11 03:58:06;;;;;;;6.55;5.67;;;;;;;15.86;78.78;96613.63;1778209;79;20961;-79
2021/07/11 04:00:31;;;;;;;6.75;6.05;;;;;;;15.93;78.72;96616.20;1776843;79;20923;-79
2021/07/11 04:03:00;;;;;;;7.20;6.50;;;;;;;15.96;78.84;96615.31;1831848;77;20901;-79
2021/07/11 04:05:29;;;;;;;6.90;6.15;;;;;;;15.98;78.53;96617.72;1793839;78;21380;-78
2021/07/11 04:07:54;;;;;;;6.70;6.10;;;;;;;15.97;78.42;96612.98;1811912;77;20992;-80
2021/07/11 04:10:25;;;;;;;5.97;5.47;;;;;;;16.00;78.62;96613.06;1810585;77;22275;-80
2021/07/11 04:12:53;;;;;;;6.10;5.43;;;;;;;15.97;78.52;96601.19;1809963;77;20944;-80
2021/07/11 04:15:19;;;;;;;6.85;6.25;;;;;;;15.97;78.52;96601.19;1808398;77;21484;-80
2021/07/11 04:17:47;;;;;;;8.05;7.30;;;;;;;16.01;78.37;96614.67;1809847;77;20952;-79
2021/07/11 04:20:14;;;;;;;7.72;7.00;;;;;;;16.02;78.59;96614.97;1801576;78;20903;-79
2021/07/11 04:22:40;;;;;;;9.68;5.90;;;;;;;16.06;79.00;96608.28;1772248;79;21271;-78
2021/07/11 04:25:09;;;;;;;6.65;6.05;;;;;;;16.08;78.87;96606.25;1794502;78;20914;-78
2021/07/11 04:27:34;;;;;;;7.03;5.92;;;;;;;16.10;78.76;96607.64;1796427;78;20971;-79
2021/07/11 04:30:00;;;;;;;6.40;5.80;;;;;;;16.12;78.75;96611.39;1813722;77;20984;-79
2021/07/11 04:32:26;;;;;;;7.50;6.80;;;;;;;16.14;78.79;96609.36;1811818;77;21033;-78
2021/07/11 04:34:52;;;;;;;7.85;7.15;;;;;;;16.17;78.92;96606.31;1813954;77;20996;-78
2021/07/11 04:37:18;;;;;;;7.28;6.62;;;;;;;16.20;78.90;96604.06;1815441;77;21020;-80
2021/07/11 04:39:44;;;;;;;6.92;6.33;;;;;;;16.20;78.93;96608.00;1821503;77;20909;-79
2021/07/11 04:42:11;;;;;;;7.33;6.58;;;;;;;16.25;79.10;96606.55;1816727;77;21404;-79
2021/07/11 04:44:37;;;;;;;6.80;6.20;;;;;;;16.29;79.00;96600.70;1815447;77;20992;-78
2021/07/11 04:47:03;;;;;;;7.60;7.00;;;;;;;16.35;79.13;96605.59;1818054;77;20915;-78
2021/07/11 04:49:28;;;;;;;7.33;6.70;;;;;;;16.39;79.21;96601.02;1803946;77;20936;-78
2021/07/11 04:51:54;;;;;;;6.50;6.00;;;;;;;16.45;79.33;96596.75;1816029;77;20919;-79
2021/07/11 04:54:20;;;;;;;6.65;6.05;;;;;;;16.50;79.43;96605.58;1811825;77;20923;-78
2021/07/11 04:56:46;;;;;;;6.50;6.00;;;;;;;16.53;79.21;96600.41;1810670;77;20976;-78
2021/07/11 04:59:11;;;;;;;7.00;6.40;;;;;;;16.57;79.23;96604.20;1816031;77;21308;-79
2021/07/11 05:01:37;;;;;;;6.47;5.55;;;;;;;16.62;79.41;96599.14;1810420;77;20947;-79
2021/07/11 05:04:03;;;;;;;6.90;6.30;;;;;;;16.65;79.28;96597.39;1815061;77;21293;-79
2021/07/11 05:06:29;;;;;;;6.45;5.85;;;;;;;16.63;79.23;96603.38;1818289;77;21368;-79
2021/07/11 05:08:55;;;;;;;5.95;5.35;;;;;;;16.64;79.37;96591.86;1810452;77;21028;-78
2021/07/11 05:11:20;;;;;;;5.70;5.20;;;;;;;16.70;79.30;96596.77;1815252;77;20983;-78
2021/07/11 05:13:46;;;;;;;5.42;4.60;;;;;;;16.78;79.29;96595.20;1814681;77;20972;-79
2021/07/11 05:16:12;;;;;;;6.60;6.05;;;;;;;16.87;79.23;96589.16;1827275;77;21351;-78
2021/07/11 05:18:38;;;;;;;6.03;5.42;;;;;;;16.96;79.28;96593.93;1809589;77;21858;-79
2021/07/11 05:21:04;;;;;;;7.78;7.08;;;;;;;16.98;79.27;96602.39;1815034;77;20904;-80
2021/07/11 05:23:30;;;;;;;6.50;5.90;;;;;;;16.99;79.45;96606.62;1806801;77;20904;-79
2021/07/11 05:25:56;;;;;;;6.05;5.45;;;;;;;17.05;79.53;96610.19;1816861;77;21247;-79
2021/07/11 05:28:22;;;;;;;5.55;5.15;;;;;;;17.10;79.53;96605.11;1819222;77;20928;-79
2021/07/11 05:30:47;;;;;;;6.03;5.53;;;;;;;17.14;79.33;96602.33;1785173;77;21514;-79
2021/07/11 05:33:13;;;;;;;6.67;6.08;;;;;;;17.19;79.41;96605.61;1812947;77;20952;-79
2021/07/11 05:35:39;;;;;;;6.95;6.28;;;;;;;17.27;79.37;96604.83;1821718;77;21014;-79
2021/07/11 05:38:05;;;;;;;7.25;6.65;;;;;;;17.34;79.48;96608.17;1816415;77;21023;-78
2021/07/11 05:40:32;;;;;;;7.15;6.55;;;;;;;17.40;79.42;96613.86;1809661;77;21221;-78
2021/07/11 05:42:57;;;;;;;6.12;5.62;;;;;;;17.45;79.60;96612.42;1812719;77;21198;-78
2021/07/11 05:45:23;;;;;;;6.60;5.95;;;;;;;17.53;79.39;96610.80;1811229;77;21003;-79
2021/07/11 05:47:49;;;;;;;8.48;7.78;;;;;;;17.62;79.56;96602.92;1819343;77;21004;-79
2021/07/11 05:50:15;;;;;;;10.00;9.05;;;;;;;17.67;79.56;96606.48;1815052;77;22177;-80
2021/07/11 05:52:41;;;;;;;7.60;6.90;;;;;;;17.74;79.76;96610.91;1817414;77;21035;-80
2021/07/11 05:55:08;;;;;;;9.65;8.75;;;;;;;17.78;79.68;96608.92;1822566;77;21012;-80
2021/07/11 05:57:34;;;;;;;9.18;8.33;;;;;;;17.80;79.72;96609.50;1809621;77;21880;-80
2021/07/11 05:59:59;;;;;;;9.48;8.63;;;;;;;17.87;79.64;96610.72;1818789;77;20921;-80
2021/07/11 06:02:27;;;;;;;9.25;8.45;;;;;;;17.96;79.78;96607.58;1808019;77;20907;-80
2021/07/11 06:04:53;;;;;;;9.75;8.85;;;;;;;18.02;79.50;96612.96;1807158;77;21017;-81
2021/07/11 06:07:19;;;;;;;9.40;8.65;;;;;;;18.11;79.49;96609.81;1814665;77;21034;-80
2021/07/11 06:09:45;;;;;;;8.68;7.80;;;;;;;18.20;79.56;96617.66;1802532;79;20971;-79
2021/07/11 06:12:11;;;;;;;7.25;6.65;;;;;;;18.29;79.46;96612.89;1803731;77;20987;-79
2021/07/11 06:14:37;;;;;;;7.17;6.42;;;;;;;18.34;79.56;96608.27;1802988;77;20947;-79
2021/07/11 06:17:03;;;;;;;8.68;7.78;;;;;;;18.37;79.50;96610.44;1814048;77;21201;-79
2021/07/11 06:19:29;;;;;;;9.35;8.45;;;;;;;18.44;79.51;96597.49;1804202;77;20912;-80
2021/07/11 06:21:55;;;;;;;10.50;8.48;;;;;;;18.47;79.64;96598.35;1796030;77;21431;-81
2021/07/11 06:24:21;;;;;;;8.80;8.00;;;;;;;18.52;79.52;96600.30;1807485;77;20933;-81
2021/07/11 06:26:47;;;;;;;8.68;7.80;;;;;;;18.59;79.50;96607.59;1796008;77;20940;-81
2021/07/11 06:29:13;;;;;;;7.60;6.80;;;;;;;18.73;79.38;96604.27;1816980;77;20957;-80
2021/07/11 06:31:39;;;;;;;9.13;8.33;;;;;;;18.95;79.51;96600.55;1812008;77;21272;-81
2021/07/11 06:34:05;;;;;;;8.00;7.25;;;;;;;19.11;79.14;96596.72;1819270;77;21004;-81
2021/07/11 06:36:33;;;;;;;7.47;6.83;;;;;;;19.30;79.26;96596.06;1805798;78;21010;-81
2021/07/11 06:39:00;;;;;;;8.90;7.62;;;;;;;19.53;79.58;96594.44;1772895;78;21018;-81
2021/07/11 06:41:26;;;;;;;7.20;6.08;;;;;;;19.68;79.15;96587.63;1799770;78;21256;-79
2021/07/11 06:43:52;;;;;;;8.33;7.62;;;;;;;19.78;78.52;96590.48;1815074;77;20979;-79
2021/07/11 06:46:17;;;;;;;8.50;7.80;;;;;;;19.86;78.34;96589.33;1811849;77;20967;-79
2021/07/11 06:48:43;;;;;;;9.20;8.35;;;;;;;19.93;78.15;96591.29;1808205;77;21296;-79
2021/07/11 06:51:09;;;;;;;8.98;8.18;;;;;;;20.07;77.97;96591.81;1805748;77;21038;-79
2021/07/11 06:53:35;;;;;;;9.48;8.58;;;;;;;20.18;77.97;96583.57;1805770;77;20959;-79
2021/07/11 06:56:02;;;;;;;6.47;5.97;;;;;;;20.34;78.31;96579.64;1812938;77;20999;-79
2021/07/11 06:58:28;;;;;;;7.97;7.28;;;;;;;20.43;77.35;96574.78;1803577;78;20908;-80
2021/07/11 07:00:54;;;;;;;7.22;6.60;;;;;;;20.53;76.88;96576.80;1804379;77;20895;-80
2021/07/11 07:03:19;;;;;;;9.28;8.35;;;;;;;20.57;76.91;96569.99;1798096;77;20982;-79
2021/07/11 07:05:45;;;;;;;9.93;9.03;;;;;;;20.56;76.40;96565.75;1796878;77;21236;-79
2021/07/11 07:08:11;;;;;;;8.58;7.85;;;;;;;20.63;76.73;96564.53;1807677;77;21026;-80
2021/07/11 07:10:37;;;;;;;9.00;8.20;;;;;;;20.69;76.50;96560.16;1807128;78;21276;-81
2021/07/11 07:13:03;;;;;;;8.63;7.83;;;;;;;20.72;76.42;96574.19;1802443;77;21236;-79
2021/07/11 07:15:29;;;;;;;9.28;8.48;;;;;;;20.79;76.41;96561.61;1804006;77;20984;-79
2021/07/11 07:17:55;;;;;;;9.90;9.10;;;;;;;20.85;75.84;96569.91;1803242;78;21030;-79
2021/07/11 07:20:20;;;;;;;9.98;9.08;;;;;;;20.89;75.72;96571.02;1803630;77;20950;-81
2021/07/11 07:22:46;;;;;;;9.95;9.05;;;;;;;20.97;75.81;96576.39;1802911;78;20967;-81
2021/07/11 07:25:15;;;;;;;9.20;8.43;;;;;;;21.02;75.41;96577.01;1799065;77;20986;-81
2021/07/11 07:27:41;;;;;;;9.08;8.15;;;;;;;21.11;75.48;96579.50;1796709;77;21265;-81
2021/07/11 07:30:08;;;;;;;11.00;9.73;;;;;;;21.20;75.54;96578.05;1811549;77;21275;-81
2021/07/11 07:32:34;;;;;;;9.30;8.53;;;;;;;21.28;74.74;96582.93;1811693;77;20959;-80
2021/07/11 07:35:00;;;;;;;8.70;8.00;;;;;;;21.36;74.95;96582.52;1814424;77;20991;-79
2021/07/11 07:37:26;;;;;;;8.45;7.65;;;;;;;21.45;75.04;96588.97;1815444;77;20901;-79
2021/07/11 07:39:51;;;;;;;9.15;8.35;;;;;;;21.49;75.08;96587.45;1800045;77;20958;-79
2021/07/11 07:42:17;;;;;;;9.33;7.97;;;;;;;21.57;74.97;96597.59;1805472;77;20919;-79
2021/07/11 07:44:43;;;;;;;8.88;8.08;;;;;;;21.67;75.08;96591.63;1813191;77;21214;-80
2021/07/11 07:47:09;;;;;;;8.00;7.40;;;;;;;21.65;73.85;96597.70;1812440;77;20955;-80
2021/07/11 07:49:35;;;;;;;9.38;8.45;;;;;;;21.53;73.62;96602.30;1808164;77;20951;-77
2021/07/11 07:52:00;;;;;;;8.63;7.83;;;;;;;21.49;74.06;96598.03;1813566;77;20911;-77
2021/07/11 07:54:26;;;;;;;8.75;7.80;;;;;;;21.53;74.70;96595.16;1817077;77;20873;-78
2021/07/11 07:56:52;;;;;;;9.18;8.38;;;;;;;21.60;75.07;96596.81;1809017;77;20934;-78
2021/07/11 07:59:18;;;;;;;8.28;7.58;;;;;;;21.71;74.20;96593.25;1805366;78;21704;-78
2021/07/11 08:01:43;;;;;;;8.60;7.87;;;;;;;21.80;73.81;96599.69;1805312;77;20927;-78
2021/07/11 08:04:09;;;;;;;8.43;7.72;;;;;;;21.88;73.73;96601.39;1804983;77;20930;-79
2021/07/11 08:06:35;;;;;;;9.25;8.35;;;;;;;21.98;73.82;96594.63;1775652;79;21012;-79
2021/07/11 08:09:01;;;;;;;9.18;8.48;;;;;;;22.13;74.18;96594.29;1782319;78;20982;-79
2021/07/11 08:11:26;;;;;;;9.80;7.87;;;;;;;22.28;74.48;96600.75;1779599;78;21235;-79
2021/07/11 08:13:52;;;;;;;8.08;7.25;;;;;;;22.37;74.05;96599.27;1776883;78;20943;-79
2021/07/11 08:16:20;;;;;;;7.53;6.83;;;;;;;22.48;73.56;96598.31;1805483;77;20916;-79
2021/07/11 08:18:46;;;;;;;8.38;7.55;;;;;;;22.73;73.64;96587.91;1747791;77;20920;-79
2021/07/11 08:21:12;;;;;;;8.05;7.35;;;;;;;23.02;73.10;96577.81;1804294;77;20912;-79
2021/07/11 08:23:37;;;;;;;8.15;7.40;;;;;;;23.26;72.61;96583.51;1804824;77;21178;-78
2021/07/11 08:26:03;;;;;;;8.75;8.05;;;;;;;23.38;72.04;96579.33;1812382;77;20963;-79
2021/07/11 08:28:29;;;;;;;8.48;7.60;;;;;;;23.75;71.21;96585.87;1815791;77;20947;-79
2021/07/11 08:30:55;;;;;;;7.80;7.20;;;;;;;23.75;71.21;96585.87;1788290;78;20892;-79
2021/07/11 08:33:21;;;;;;;7.65;7.05;;;;;;;23.83;70.36;96587.24;1792426;78;20945;-79
2021/07/11 08:35:46;;;;;;;7.50;6.70;;;;;;;23.94;70.47;96581.71;1803638;77;21272;-79
2021/07/11 08:38:12;;;;;;;8.20;7.40;;;;;;;24.13;70.26;96586.00;1806223;77;20990;-79
2021/07/11 08:40:38;;;;;;;8.10;7.40;;;;;;;24.31;69.82;96587.37;1807500;77;20951;-79
2021/07/11 08:43:06;;;;;;;8.08;7.47;;;;;;;24.32;68.98;96581.54;1794704;77;21343;-79
2021/07/11 08:45:33;;;;;;;8.18;7.47;;;;;;;24.34;69.10;96578.88;1806825;77;20935;-79
2021/07/11 08:47:59;;;;;;;7.95;7.28;;;;;;;24.47;68.75;96573.59;1780995;78;20947;-78
2021/07/11 08:50:25;;;;;;;8.10;7.22;;;;;;;24.61;69.65;96578.64;1784858;78;20940;-79
2021/07/11 08:52:51;;;;;;;7.50;6.90;;;;;;;24.46;67.64;96574.65;1778039;78;20892;-79
2021/07/11 08:55:22;;;;;;;7.70;7.00;;;;;;;24.24;67.75;96575.67;1791291;78;20946;-79
2021/07/11 08:57:54;;;;;;;6.37;5.70;;;;;;;24.27;67.58;96578.33;1791090;78;20958;-79
2021/07/11 09:00:30;;;;;;;7.87;7.17;;;;;;;24.27;67.49;96577.53;1783373;78;20942;-79
2021/07/11 09:02:56;;;;;;;7.50;6.90;;;;;;;24.23;68.56;96574.58;1801679;78;20934;-80
2021/07/11 09:05:28;;;;;;;8.88;8.18;;;;;;;24.28;68.66;96573.81;1803078;78;20956;-79
2021/07/11 09:08:13;;;;;;;8.25;7.45;;;;;;;24.39;68.86;96578.08;1787799;78;21013;-79
2021/07/11 09:10:56;;;;;;;7.28;6.58;;;;;;;24.40;68.11;96571.17;1793355;78;20894;-79
2021/07/11 09:13:25;;;;;;;8.35;7.55;;;;;;;24.44;68.41;96580.77;1798007;78;21232;-79
2021/07/11 09:15:54;;;;;;;8.13;7.00;;;;;;;24.41;68.40;96586.08;1808595;78;21953;-78
2021/07/11 09:18:29;;;;;;;8.10;7.40;;;;;;;24.41;68.96;96591.39;1808252;78;21213;-79
2021/07/11 09:21:06;;;;;;;7.87;6.92;;;;;;;24.44;68.49;96591.38;1807897;78;20955;-79
2021/07/11 09:23:32;;;;;;;7.50;6.83;;;;;;;24.47;68.79;96595.63;1801441;78;20997;-79
2021/07/11 09:26:09;;;;;;;7.53;6.83;;;;;;;24.52;68.56;96596.16;1778635;78;21276;-79
2021/07/11 09:28:44;;;;;;;7.47;6.78;;;;;;;24.52;68.51;96598.28;1793500;78;20989;-79
2021/07/11 09:31:13;;;;;;;7.08;6.47;;;;;;;24.59;68.33;96594.59;1788043;78;20883;-79
2021/07/11 09:33:43;;;;;;;8.13;7.50;;;;;;;24.75;68.34;96592.98;1781929;78;20978;-80
2021/07/11 09:36:17;;;;;;;8.23;7.53;;;;;;;24.79;67.80;96591.38;1801727;78;20995;-80
2021/07/11 09:38:59;;;;;;;8.93;7.00;;;;;;;24.76;68.29;96589.27;1799798;78;20962;-79
2021/07/11 09:41:33;;;;;;;7.70;7.05;;;;;;;24.67;67.06;96595.37;1786474;78;20899;-79
2021/07/11 09:44:04;;;;;;;8.20;7.45;;;;;;;24.65;67.97;96591.65;1791948;78;20874;-79
2021/07/11 09:46:35;;;;;;;8.25;7.45;;;;;;;24.68;67.62;96591.11;1802819;78;21181;-80
2021/07/11 09:49:03;;;;;;;7.35;6.75;;;;;;;24.65;67.89;96595.63;1818092;77;20959;-79
2021/07/11 09:51:30;;;;;;;6.97;6.40;;;;;;;24.61;68.57;96609.72;1769664;79;20915;-80
2021/07/11 09:54:12;;;;;;;7.45;6.62;;;;;;;24.55;67.67;96615.02;1809535;77;21293;-79
2021/07/11 09:56:45;;;;;;;7.35;6.75;;;;;;;24.48;68.36;96609.70;1815643;77;20918;-80
2021/07/11 09:59:13;;;;;;;7.80;7.10;;;;;;;24.46;68.89;96608.65;1808410;77;21027;-79
2021/07/11 10:01:42;;;;;;;7.75;6.95;;;;;;;24.43;68.53;96615.02;1777856;78;20936;-80
2021/07/11 10:04:08;;;;;;;7.35;6.70;;;;;;;24.39;68.69;96613.41;1789963;79;20974;-80
2021/07/11 10:06:35;;;;;;;7.45;6.75;;;;;;;24.33;68.26;96622.44;1780183;78;21269;-81
2021/07/11 10:09:04;;;;;;;6.95;6.33;;;;;;;24.33;68.98;96626.41;1820063;78;21311;-81
2021/07/11 10:11:30;;;;;;;7.53;6.53;;;;;;;24.31;69.56;96626.41;1768210;80;20856;-79
2021/07/11 10:13:57;;;;;;;8.28;7.37;;;;;;;24.21;69.85;96631.13;1815542;78;21288;-80
2021/07/11 10:16:30;;;;;;;9.48;8.58;;;;;;;24.13;70.32;96639.09;1818591;77;21248;-79
2021/07/11 10:18:59;;;;;;;8.78;7.87;;;;;;;24.03;70.70;96633.74;1820284;78;20934;-81
2021/07/11 10:21:33;;;;;;;10.60;7.83;;;;;;;23.92;71.35;96631.60;1822313;77;21042;-79
2021/07/11 10:23:59;;;;;;;10.18;8.18;;;;;;;23.86;71.51;96623.86;1818521;77;20943;-80
2021/07/11 10:26:38;;;;;;;9.78;7.80;;;;;;;23.80;71.95;96631.55;1797253;78;20964;-80
2021/07/11 10:29:18;;;;;;;9.75;8.93;;;;;;;23.81;72.38;96643.75;1805910;77;20939;-80
2021/07/11 10:31:51;;;;;;;10.67;8.40;;;;;;;23.73;72.54;96643.70;1802235;78;20955;-80
2021/07/11 10:34:31;;;;;;;7.85;6.58;;;;;;;23.57;72.47;96641.51;1810319;78;21426;-80
2021/07/11 10:36:57;;;;;;;6.92;6.28;;;;;;;23.47;72.16;96637.99;1816724;77;20919;-80
2021/07/11 10:39:29;;;;;;;9.88;8.25;;;;;;;23.40;72.63;96638.73;1773753;79;21287;-80
2021/07/11 10:41:55;;;;;;;10.65;8.53;;;;;;;23.33;73.23;96645.59;1787466;79;20980;-80
2021/07/11 10:44:24;;;;;;;8.55;7.75;;;;;;;23.28;73.28;96654.86;1773080;79;20967;-80
2021/07/11 10:46:58;;;;;;;8.43;7.62;;;;;;;23.24;73.47;96657.72;1797934;78;21229;-79
2021/07/11 10:49:32;;;;;;;7.00;6.45;;;;;;;23.16;73.71;96667.48;1800323;79;20920;-80
2021/07/11 10:52:07;;;;;;;6.20;5.70;;;;;;;23.03;73.69;96696.02;1798661;79;20885;-79
2021/07/11 10:54:40;;;;;;;7.40;6.70;;;;;;;22.87;73.69;96727.94;1785024;79;21297;-80
2021/07/11 10:57:10;;;;;;;7.03;6.30;;;;;;;22.70;74.16;96739.41;1807883;78;21252;-78
2021/07/11 10:59:41;;;;;;;8.28;5.95;;;;;;;22.50;73.67;96755.09;1797839;78;21327;-79
2021/07/11 11:02:23;;;;;;;7.35;4.45;;;;;;;22.19;73.41;96734.59;1789784;77;20972;-78
2021/07/11 11:05:02;;;;;;;;;;;;;;;21.86;72.01;96733.11;1816124;78;20943;-80
2021/07/11 11:07:53;;;;;;;6.62;4.17;;;;;;;21.54;72.35;96717.06;1799778;77;20144;-79
2021/07/11 11:10:30;;;;;;;11.68;4.65;;;;;;;21.29;72.49;96690.23;1802490;78;21028;-78
2021/07/11 11:13:19;;;;;;;8.98;5.25;;;;;;;21.08;72.90;96692.27;1806108;77;21304;-79
2021/07/11 11:15:58;;;;;;;7.00;3.90;;;;;;;20.95;73.54;96700.78;1795696;78;20944;-79
2021/07/11 11:18:37;;;;;;;7.05;4.72;;;;;;;20.86;73.86;96703.56;1808082;77;20924;-78
2021/07/11 11:21:19;;;;;;;7.17;4.72;;;;;;;20.75;74.33;96700.97;1805839;78;20979;-78
2021/07/11 11:23:52;;;;;;;5.58;4.20;;;;;;;20.67;74.60;96691.61;1801341;78;20919;-79
2021/07/11 11:26:26;;;;;;;5.72;4.28;;;;;;;20.63;74.98;96690.46;1804621;78;21285;-79
2021/07/11 11:28:55;;;;;;;4.15;3.67;;;;;;;20.61;75.21;96692.02;1803916;77;21467;-78
2021/07/11 11:31:25;;;;;;;7.05;3.85;;;;;;;20.56;75.25;96686.66;1803984;77;21307;-79
2021/07/11 11:34:10;;;;;;;4.03;3.45;;;;;;;20.46;75.41;96687.79;1792919;77;20948;-79
2021/07/11 11:36:48;;;;;;;6.35;3.40;;;;;;;20.41;75.65;96692.98;1813189;77;21364;-79
2021/07/11 11:39:29;;;;;;;6.67;4.10;;;;;;;20.36;76.02;96694.19;1797004;77;21002;-79